»·PEaware :: STRYK11 KABQ-KELP

STRYK11 :: KABQ-KELP

FLIGHT INFORMATION

Flight Status: Arrived
Operator: Unknown
More flights by this operator :: More flights under this callsign
Pilot: Kevin M. (7)
Aircraft: Unknown
(F35)
More flights by this aircraft type
Origin: KABQ Albuquerque Intl Sunport
United States
Destination: KELP El Paso Intl
United States
More flights between these airports :: More routes between these airports
Route: MNZNO3 ONM TCS RUTER ELP
File this flight plan on PilotEdge
Remarks:
Altitude:
(Current/Filed)
27,000ft
Speed:
(Current/Filed)
550kts
Departed: 23-Oct-19 10:39 AM
Arrived: 23-Oct-19 11:05 AM
Distance/Time
Traveled:
195nm/0:26
Distance/Time
To Go:
Arrived

Flight Plot

Page will automatically refresh every two minutes.

Flight plan parsing failed; only flown route is shown


Map Options




Map Legend


Flown Route
Filed Route
Departure Airport
Arrival Airport
Navaid (VOR, NDB)
Fix

Horizontal Profiles

Position Reports

Time Latitude Longitude Heading Altitude Ground
Speed
23-Oct-19 10:25 35.037402 -106.619431 287 5310ft 0kts
23-Oct-19 10:26 35.037937 -106.619660 347 5309ft 14kts
23-Oct-19 10:27 35.039271 -106.620317 356 5305ft 0kts
23-Oct-19 10:28 35.039271 -106.620317 356 5305ft 0kts
23-Oct-19 10:29 35.039271 -106.620317 356 5305ft 0kts
23-Oct-19 10:30 35.039271 -106.620317 356 5305ft 0kts
23-Oct-19 10:31 35.039346 -106.620322 356 5305ft 4kts
23-Oct-19 10:32 35.039739 -106.618467 89 5311ft 21kts
23-Oct-19 10:33 35.037403 -106.614474 219 5315ft 27kts
23-Oct-19 10:34 35.030376 -106.622916 224 5312ft 30kts
23-Oct-19 10:35 35.024803 -106.629675 224 5297ft 29kts
23-Oct-19 10:36 35.022958 -106.631238 140 5288ft 0kts
23-Oct-19 10:37 35.022413 -106.630473 88 5293ft 15kts
23-Oct-19 10:38 35.039335 -106.609749 66 6785ft 130kts
23-Oct-19 10:39 35.007990 -106.547348 129 16434ft 306kts
23-Oct-19 10:40 34.927034 -106.490480 195 25558ft 418kts
23-Oct-19 10:41 34.825514 -106.520782 192 26711ft 380kts
23-Oct-19 10:42 34.700428 -106.519120 172 27062ft 516kts
23-Oct-19 10:43 34.610254 -106.578580 272 27268ft 393kts
23-Oct-19 10:44 34.584650 -106.739829 233 27050ft 559kts
23-Oct-19 10:45 34.438798 -106.812662 181 27019ft 610kts
23-Oct-19 10:46 34.270140 -106.774645 174 26999ft 619kts
23-Oct-19 10:47 34.099774 -106.750737 184 27004ft 611kts
23-Oct-19 10:48 33.930026 -106.721901 173 26996ft 620kts
23-Oct-19 10:49 33.759853 -106.685686 173 26992ft 620kts
23-Oct-19 10:50 33.590221 -106.649724 173 26993ft 620kts
23-Oct-19 10:51 33.421018 -106.613996 173 26994ft 620kts
23-Oct-19 10:52 33.248869 -106.577798 173 24970ft 601kts
23-Oct-19 10:53 33.087098 -106.543954 173 21984ft 580kts
23-Oct-19 10:54 32.927403 -106.510645 172 18930ft 578kts
23-Oct-19 10:55 32.776080 -106.479165 172 17055ft 624kts
23-Oct-19 10:56 32.603878 -106.443460 171 17042ft 631kts
23-Oct-19 10:57 32.430429 -106.407682 171 16237ft 632kts
23-Oct-19 10:58 32.257435 -106.372121 171 13501ft 630kts
23-Oct-19 10:59 32.110992 -106.348560 176 10783ft 444kts
23-Oct-19 11:00 31.998318 -106.336432 176 9987ft 325kts
23-Oct-19 11:02 31.915955 -106.329830 164 8280ft 289kts
23-Oct-19 11:03 31.843017 -106.340554 236 5122ft 228kts
23-Oct-19 11:04 31.814225 -106.382147 230 3932ft 118kts
23-Oct-19 11:05 31.803310 -106.395850 179 3921ft 0kts
23-Oct-19 11:06 31.799273 -106.390039 152 3925ft 105kts
23-Oct-19 11:07 31.795495 -106.388840 215 3926ft 0kts
23-Oct-19 11:08 31.795495 -106.388840 215 3926ft 0kts
23-Oct-19 11:09 31.795495 -106.388840 215 3927ft 0kts
23-Oct-19 11:10 31.795495 -106.388840 215 3927ft 0kts
23-Oct-19 11:11 31.795495 -106.388840 215 3927ft 0kts
23-Oct-19 11:12 31.795495 -106.388840 215 3927ft 0kts
23-Oct-19 11:13 31.795495 -106.388840 215 3927ft 0kts
23-Oct-19 11:14 31.795495 -106.388840 215 3927ft 0kts
23-Oct-19 11:15 31.795495 -106.388840 215 3927ft 0kts
23-Oct-19 11:16 31.795495 -106.388840 215 3927ft 0kts
23-Oct-19 11:17 31.795495 -106.388840 215 3927ft 0kts
23-Oct-19 11:18 31.795495 -106.388840 215 3927ft 0kts
23-Oct-19 11:19 31.795495 -106.388840 215 3927ft 0kts
23-Oct-19 11:19 31.795495 -106.388840 215 3927ft 0kts

Navigation Log

Ident Type
Flight plan parsing failed, navigation log unavailable